Impacts TAF Board
For situational awareness. Not to be used for flight planning purposes.
IDs:

KTUS - Tucson Intl Arpt, AZ, US

Issued at 1120 UTC 30 Oct 2020
Updated at 1715 UTC 30 Oct 2020
Potential Impact None Slight Moderate High
Time1653Z 30/18Z 30/19Z 30/20Z 30/21Z 30/22Z 30/23Z 31/00Z 31/01Z 31/02Z 31/03Z 31/04Z 31/05Z 31/06Z>>
Type OBS PRVL PRVL PRVL PRVL PRVL PRVL PRVL PRVL PRVL PRVL PRVL PRVL PRVL
VIS 10 >6 >6 >6 >6 >6 >6 >6 >6 >6 >6 >6 >6 >6
CIG -- -- -- -- -- -- -- -- -- -- 250 250 250 250
Cover CLR FEW FEW SCT SCT SCT SCT SCT SCT SCT BKN BKN BKN BKN
FltCat VFR VFR VFR VFR VFR VFR VFR VFR VFR VFR VFR VFR VFR VFR
WX -- -- -- -- -- -- -- -- -- -- -- -- -- --
WDir 150 130 130 50 50 50 50 50 50 50 140 140 140 140
WSpd 11 12 12 7 7 7 7 7 7 7 6 6 6 6
WGst -- -- -- -- -- -- -- -- -- -- -- -- -- --
Raw TAF
KTUS 301120Z 3012/3112 13012KT P6SM FEW250
  FM302000 05007KT P6SM SCT250
  FM310300 14006KT P6SM BKN250


Raw METAR
KTUS 301653Z 15011KT 10SM CLR 23/M03 A3012 RMK AO2 SLP164 T02281028 $
KTUS 301553Z 15010KT 10SM CLR 20/M03 A3012 RMK AO2 SLP167 T02001033 $
KTUS 301453Z 16007KT 10SM CLR 17/M04 A3011 RMK AO2 SLP165 T01671039 51013

METAR Board
Radar Display
Forecast Discussion
For situational awareness. Not to be used for flight planning purposes.